Time;durP1;ratioP1;P1;durP2;ratioP2;P2;SDS_P1;SDS_P2;PMS_P1;PMS_P2;Temp;Humidity;BMP_temperature;BMP_pressure;BME280_temperature;BME280_humidity;BME280_pressure;Samples;Min_cycle;Max_cycle;Signal;HPM_P1;HPM_P2
2023/01/05 00:01:06;;;;;;;34.42;5.50;;;;;;;11.38;100.00;101688.94;5027954;28;20025;-69
2023/01/05 00:03:32;;;;;;;42.92;5.93;;;;;;;11.41;100.00;101680.06;5030517;28;20048;-71
2023/01/05 00:06:06;;;;;;;36.63;4.97;;;;;;;11.26;100.00;101695.38;5032029;28;20038;-69
2023/01/05 00:08:32;;;;;;;36.20;6.13;;;;;;;11.37;100.00;101682.78;5032964;28;20068;-69
2023/01/05 00:24:45;;;;;;;39.35;6.07;;;;;;;11.16;100.00;101686.78;5029469;28;20111;-68
2023/01/05 00:27:10;;;;;;;33.38;5.88;;;;;;;11.14;100.00;101674.53;5028655;28;20468;-71
2023/01/05 00:29:36;;;;;;;41.22;5.40;;;;;;;11.16;100.00;101691.19;5028268;28;20570;-68
2023/01/05 00:32:01;;;;;;;37.33;5.93;;;;;;;11.11;100.00;101673.69;5027786;28;20022;-68
2023/01/05 00:34:26;;;;;;;45.15;5.47;;;;;;;11.07;100.00;101676.44;5028429;28;20017;-71
2023/01/05 00:36:52;;;;;;;35.88;6.38;;;;;;;11.02;100.00;101683.59;5028857;28;20034;-72
2023/01/05 00:39:17;;;;;;;49.47;7.30;;;;;;;11.03;100.00;101682.69;5028234;28;20030;-67
2023/01/05 00:41:42;;;;;;;37.40;6.03;;;;;;;11.07;100.00;101687.88;4991582;28;20037;-68
2023/01/05 00:44:08;;;;;;;41.83;5.68;;;;;;;11.05;100.00;101692.28;5008253;28;20060;-71
2023/01/05 00:46:33;;;;;;;35.95;5.68;;;;;;;10.92;100.00;101686.44;5008451;28;20049;-70
2023/01/05 00:48:58;;;;;;;31.17;5.85;;;;;;;10.98;100.00;101701.25;5011764;28;20045;-69
2023/01/05 00:51:24;;;;;;;48.58;6.10;;;;;;;10.98;100.00;101701.25;5008432;28;20049;-72
2023/01/05 00:53:49;;;;;;;47.30;6.57;;;;;;;11.01;100.00;101682.72;5007650;28;20060;-69
2023/01/05 00:56:14;;;;;;;42.97;6.13;;;;;;;10.95;100.00;101678.44;5007835;28;20452;-67
2023/01/05 00:58:40;;;;;;;36.92;5.97;;;;;;;10.93;100.00;101684.66;5008476;28;20499;-68
2023/01/05 01:01:10;;;;;;;35.85;6.20;;;;;;;10.93;100.00;101709.25;5007919;28;20090;-69
2023/01/05 01:03:35;;;;;;;34.15;5.88;;;;;;;10.94;100.00;101710.13;5007979;28;20073;-69
2023/01/05 01:06:00;;;;;;;44.03;6.80;;;;;;;10.97;100.00;101702.16;5007784;28;20046;-72
2023/01/05 01:08:26;;;;;;;42.55;6.10;;;;;;;10.97;100.00;101718.84;5008034;28;20058;-70
2023/01/05 01:10:51;;;;;;;52.53;6.47;;;;;;;10.99;100.00;101703.00;5022713;28;20057;-69
2023/01/05 01:13:16;;;;;;;42.10;5.88;;;;;;;11.01;100.00;101722.28;5009834;28;20468;-69
2023/01/05 01:15:42;;;;;;;43.58;5.93;;;;;;;10.93;100.00;101729.50;5026658;28;20839;-68
2023/01/05 01:18:07;;;;;;;28.75;4.72;;;;;;;10.98;100.00;101711.78;5026739;28;20652;-70
2023/01/05 01:20:32;;;;;;;35.70;5.72;;;;;;;10.99;100.00;101726.72;5028021;28;20044;-71
2023/01/05 01:22:59;;;;;;;41.05;6.60;;;;;;;11.00;100.00;101712.63;5027305;28;20087;-64
2023/01/05 01:25:25;;;;;;;43.22;6.63;;;;;;;11.00;100.00;101715.28;5026719;28;20087;-70
2023/01/05 01:27:50;;;;;;;39.15;6.32;;;;;;;10.98;100.00;101743.44;5027185;28;20021;-67
2023/01/05 01:30:16;;;;;;;41.25;6.70;;;;;;;10.97;100.00;101726.75;5027614;28;20072;-71
2023/01/05 01:32:41;;;;;;;35.42;5.88;;;;;;;10.91;100.00;101741.84;5028077;28;20029;-70
2023/01/05 01:35:07;;;;;;;42.22;6.60;;;;;;;10.93;100.00;101732.13;5029497;28;20070;-65
2023/01/05 01:37:32;;;;;;;44.17;7.35;;;;;;;10.92;100.00;101748.84;5030674;28;20096;-70
2023/01/05 01:39:58;;;;;;;40.65;5.75;;;;;;;10.86;100.00;101765.66;5029087;28;20387;-70
2023/01/05 01:42:23;;;;;;;44.35;6.05;;;;;;;10.92;100.00;101749.72;5030791;28;20021;-70
2023/01/05 01:44:59;;;;;;;38.67;5.65;;;;;;;10.87;100.00;101751.59;5030794;28;20029;-65
2023/01/05 01:47:25;;;;;;;39.38;6.07;;;;;;;10.87;100.00;101768.25;5030419;28;20044;-66
2023/01/05 01:49:50;;;;;;;41.83;5.85;;;;;;;10.89;100.00;101733.94;5030638;28;20116;-65
2023/01/05 01:52:16;;;;;;;43.92;6.70;;;;;;;10.87;100.00;101741.88;5012931;28;20024;-70
2023/01/05 01:54:41;;;;;;;39.45;6.40;;;;;;;10.82;100.00;101753.44;5011228;28;20041;-69
2023/01/05 01:57:09;;;;;;;43.28;7.00;;;;;;;10.83;100.00;101750.78;5029821;28;20025;-64
2023/01/05 01:59:35;;;;;;;45.22;6.13;;;;;;;10.88;100.00;101742.78;5011922;28;20083;-66
2023/01/05 02:02:00;;;;;;;32.85;6.47;;;;;;;10.85;100.00;101759.53;5011502;28;20037;-71
2023/01/05 02:04:26;;;;;;;45.20;6.35;;;;;;;10.86;100.00;101748.06;5030115;28;20055;-70
2023/01/05 02:06:52;;;;;;;34.03;6.03;;;;;;;10.82;100.00;101743.78;5011890;28;20179;-66
2023/01/05 02:09:17;;;;;;;29.92;5.63;;;;;;;10.89;100.00;101748.94;5029474;28;20044;-71
2023/01/05 02:11:47;;;;;;;38.72;5.85;;;;;;;10.95;100.00;101780.41;5030008;28;20043;-69
2023/01/05 02:14:31;;;;;;;;;;;;;;;10.97;100.00;101762.81;5089469;22;20049;-64
2023/01/05 02:17:18;;;;;;;37.88;5.65;;;;;;;10.92;100.00;101743.56;4990914;28;19923;-64
2023/01/05 02:20:05;;;;;;;34.08;5.50;;;;;;;10.89;100.00;101760.31;4990728;28;20484;-63
2023/01/05 02:22:58;;;;;;;43.35;5.40;;;;;;;10.92;100.00;101780.47;4990791;28;20026;-63
2023/01/05 02:25:40;;;;;;;31.90;5.93;;;;;;;10.88;100.00;101753.31;4972438;28;20081;-62
2023/01/05 02:28:17;;;;;;;39.35;6.15;;;;;;;10.84;100.00;101783.28;4973193;28;20030;-63
2023/01/05 02:31:03;;;;;;;29.50;4.60;;;;;;;10.83;100.00;101758.69;4990344;28;20018;-62
2023/01/05 02:33:39;;;;;;;33.88;5.40;;;;;;;10.88;100.00;101758.59;4973063;28;20034;-63
2023/01/05 02:36:15;;;;;;;35.33;5.47;;;;;;;10.80;100.00;101757.84;4990054;28;20089;-62
2023/01/05 02:39:22;;;;;;;37.17;6.07;;;;;;;10.93;100.00;101776.97;4972169;28;20030;-61
2023/01/05 02:41:52;;;;;;;40.08;5.88;;;;;;;10.85;100.00;101770.09;4970120;28;20052;-64
2023/01/05 02:44:18;;;;;;;43.30;6.25;;;;;;;10.75;100.00;101771.16;4992039;28;20116;-60
2023/01/05 02:46:45;;;;;;;32.08;5.43;;;;;;;10.86;100.00;101766.53;5009834;28;20395;-61
2023/01/05 02:49:13;;;;;;;33.75;5.63;;;;;;;10.86;100.00;101761.25;5009715;28;20160;-62
2023/01/05 02:51:41;;;;;;;34.88;5.18;;;;;;;10.93;100.00;101761.13;5009979;28;20025;-56
2023/01/05 02:54:20;;;;;;;40.10;5.70;;;;;;;10.90;100.00;101771.75;4991209;28;20129;-64
2023/01/05 02:56:59;;;;;;;36.85;5.75;;;;;;;10.95;100.00;101767.22;5010009;28;20402;-64
2023/01/05 02:59:35;;;;;;;31.27;5.38;;;;;;;11.00;100.00;101773.28;4991860;28;20021;-63
2023/01/05 03:02:04;;;;;;;34.63;5.50;;;;;;;10.94;100.00;101770.78;5027108;28;20021;-64
2023/01/05 03:04:33;;;;;;;28.63;4.95;;;;;;;11.03;100.00;101778.50;5028673;28;20043;-61
2023/01/05 03:07:03;;;;;;;35.85;5.90;;;;;;;11.11;100.00;101800.31;5029008;28;20025;-64
2023/01/05 03:09:35;;;;;;;32.47;5.13;;;;;;;11.16;100.00;101773.84;5008812;28;20024;-63
2023/01/05 03:15:06;;;;;;;32.10;5.22;;;;;;;11.25;100.00;101775.41;4993524;28;20531;-62
2023/01/05 03:17:35;;;;;;;37.00;5.85;;;;;;;11.18;100.00;101782.59;5009309;28;20302;-64
2023/01/05 03:20:02;;;;;;;30.60;4.95;;;;;;;11.22;100.00;101783.38;4991641;28;20022;-62
2023/01/05 03:37:20;;;;;;;32.47;5.20;;;;;;;11.38;100.00;101786.56;4989245;28;20493;-62
2023/01/05 03:39:46;;;;;;;34.08;5.35;;;;;;;11.39;100.00;101806.78;4971876;28;20026;-63
2023/01/05 03:42:13;;;;;;;33.63;5.07;;;;;;;11.29;100.00;101792.91;4988931;28;20022;-63
2023/01/05 03:44:39;;;;;;;38.33;5.47;;;;;;;11.38;100.00;101790.06;4989179;28;20030;-64
2023/01/05 03:47:05;;;;;;;36.50;5.22;;;;;;;11.40;100.00;101784.75;4971299;28;20117;-63
2023/01/05 03:49:31;;;;;;;34.20;5.32;;;;;;;11.38;100.00;101786.56;4988976;28;20110;-62
2023/01/05 03:51:56;;;;;;;22.38;4.03;;;;;;;11.34;100.00;101790.16;4971135;28;20053;-64
2023/01/05 03:54:21;;;;;;;45.63;5.60;;;;;;;11.35;100.00;101794.56;4988455;28;20062;-62
2023/01/05 03:56:47;;;;;;;35.78;6.05;;;;;;;11.32;100.00;101784.06;5006020;28;20022;-64
2023/01/05 03:59:12;;;;;;;24.63;4.82;;;;;;;11.28;100.00;101808.75;5007169;28;20041;-62
2023/01/05 04:01:37;;;;;;;34.42;5.95;;;;;;;11.40;100.00;101791.78;5007469;28;20044;-62
2023/01/05 04:04:03;;;;;;;37.60;5.65;;;;;;;11.42;100.00;101797.91;5008172;28;20104;-61
2023/01/05 04:06:28;;;;;;;41.25;6.75;;;;;;;11.38;100.00;101794.50;5008200;28;20080;-65
2023/01/05 04:08:53;;;;;;;39.63;5.13;;;;;;;11.31;100.00;101785.81;5007756;28;20167;-63
2023/01/05 04:11:21;;;;;;;37.50;5.45;;;;;;;11.37;100.00;101798.88;5008925;28;20030;-64
2023/01/05 04:13:46;;;;;;;34.67;5.43;;;;;;;11.35;100.00;101797.19;5008902;28;20036;-63
2023/01/05 04:16:12;;;;;;;37.88;6.55;;;;;;;11.33;100.00;101796.34;4994199;28;20026;-61
2023/01/05 04:18:37;;;;;;;39.13;6.32;;;;;;;11.36;100.00;101797.16;4971000;28;20064;-62
2023/01/05 04:21:03;;;;;;;36.20;5.65;;;;;;;11.32;100.00;101790.19;4987614;28;20061;-63
2023/01/05 04:23:28;;;;;;;34.22;5.75;;;;;;;11.36;100.00;101804.19;4987796;28;20092;-65
2023/01/05 04:25:53;;;;;;;34.17;6.18;;;;;;;11.33;100.00;101799.88;4988458;28;20022;-62
2023/01/05 04:28:19;;;;;;;38.15;6.18;;;;;;;11.37;100.00;101777.78;4989309;28;20488;-62
2023/01/05 04:30:44;;;;;;;37.63;5.80;;;;;;;11.30;100.00;101796.41;4988595;28;20410;-63
2023/01/05 04:33:10;;;;;;;42.00;5.95;;;;;;;11.36;100.00;101778.69;4988066;28;20029;-63
2023/01/05 04:35:36;;;;;;;47.72;6.05;;;;;;;11.28;100.00;101792.94;4988560;28;20030;-62
2023/01/05 04:38:01;;;;;;;45.63;6.75;;;;;;;11.28;100.00;101814.91;4988333;28;20058;-63
2023/01/05 04:40:26;;;;;;;37.42;6.10;;;;;;;11.27;100.00;101809.66;4987398;28;20068;-64
2023/01/05 04:42:52;;;;;;;36.03;5.30;;;;;;;11.32;100.00;101829.78;4988158;28;20030;-60
2023/01/05 04:45:17;;;;;;;36.40;5.88;;;;;;;11.30;100.00;101806.97;4988137;28;20046;-64
2023/01/05 04:47:42;;;;;;;36.13;5.28;;;;;;;11.28;100.00;101817.56;4988575;28;20464;-62
2023/01/05 04:50:08;;;;;;;37.42;5.40;;;;;;;11.29;100.00;101843.03;4987741;28;20026;-62
2023/01/05 04:52:33;;;;;;;43.40;6.60;;;;;;;11.27;100.00;101817.59;4988513;28;20030;-61
2023/01/05 04:54:59;;;;;;;44.42;7.20;;;;;;;11.27;100.00;101807.91;4987394;28;20019;-62
2023/01/05 04:57:24;;;;;;;40.25;6.38;;;;;;;11.31;100.00;101813.97;4988354;28;20042;-63
2023/01/05 04:59:49;;;;;;;38.15;5.75;;;;;;;11.24;100.00;101818.53;4989390;28;20077;-63
2023/01/05 05:02:15;;;;;;;40.72;5.32;;;;;;;11.23;100.00;101817.66;5007150;28;20087;-62
2023/01/05 05:04:40;;;;;;;38.92;6.97;;;;;;;11.23;100.00;101815.00;5007344;28;20032;-63
2023/01/05 05:07:06;;;;;;;42.95;5.07;;;;;;;11.23;100.00;101815.00;5007901;28;20105;-62
2023/01/05 05:09:31;;;;;;;44.10;6.10;;;;;;;11.29;100.00;101821.91;5010700;28;20033;-61
2023/01/05 05:11:56;;;;;;;35.30;5.60;;;;;;;11.28;100.00;101825.47;5011490;28;20072;-65
2023/01/05 05:14:22;;;;;;;41.50;5.68;;;;;;;11.29;100.00;101827.19;5011264;28;20078;-64
2023/01/05 05:16:47;;;;;;;49.65;7.25;;;;;;;11.29;100.00;101810.50;5012029;28;20029;-62
2023/01/05 05:19:13;;;;;;;31.70;6.05;;;;;;;11.37;100.00;101813.84;5011064;28;20032;-62
2023/01/05 05:21:38;;;;;;;38.20;5.47;;;;;;;11.30;100.00;101809.59;5010455;28;20072;-63
2023/01/05 05:24:04;;;;;;;39.90;6.28;;;;;;;11.36;100.00;101834.09;5010481;28;20026;-62
2023/01/05 05:26:29;;;;;;;40.60;5.75;;;;;;;11.28;100.00;101835.13;4993558;28;20037;-59
2023/01/05 05:28:57;;;;;;;40.85;6.30;;;;;;;11.31;100.00;101837.72;5004425;28;20038;-62
2023/01/05 05:31:23;;;;;;;39.13;6.85;;;;;;;11.30;100.00;101855.34;5009771;28;20050;-64
2023/01/05 05:33:48;;;;;;;43.15;6.38;;;;;;;11.30;100.00;101844.78;5010977;28;20061;-61
2023/01/05 05:36:14;;;;;;;34.83;6.43;;;;;;;11.31;100.00;101850.91;5016343;28;20021;-58
2023/01/05 05:38:39;;;;;;;38.85;6.97;;;;;;;11.34;100.00;101845.56;5009494;28;20439;-65
2023/01/05 05:41:05;;;;;;;40.90;6.32;;;;;;;11.21;100.00;101860.78;5014804;28;20057;-62
2023/01/05 05:43:30;;;;;;;38.85;6.28;;;;;;;11.26;100.00;101864.22;5009776;28;20423;-64
2023/01/05 05:45:55;;;;;;;44.08;6.28;;;;;;;11.38;100.00;101879.78;5007789;28;20033;-64
2023/01/05 05:48:21;;;;;;;46.53;5.72;;;;;;;11.33;100.00;101872.88;5009059;28;20203;-61
2023/01/05 05:50:46;;;;;;;40.80;6.20;;;;;;;11.28;100.00;101874.72;5010821;28;20044;-64
2023/01/05 05:53:11;;;;;;;44.05;6.38;;;;;;;11.20;100.00;101891.56;5009375;28;20038;-63
2023/01/05 05:55:37;;;;;;;37.33;5.72;;;;;;;11.27;100.00;101883.53;5009742;28;20057;-60
2023/01/05 05:58:02;;;;;;;35.55;6.40;;;;;;;11.30;100.00;101884.38;5010889;28;20111;-63
2023/01/05 06:00:27;;;;;;;38.05;6.05;;;;;;;11.33;100.00;101876.38;5009455;28;20121;-65
2023/01/05 06:02:53;;;;;;;43.63;6.63;;;;;;;11.35;100.00;101879.00;5010593;28;20026;-64
2023/01/05 06:05:18;;;;;;;42.80;6.30;;;;;;;11.33;100.00;101886.06;4992526;28;20034;-64
2023/01/05 06:07:44;;;;;;;44.90;6.15;;;;;;;11.33;100.00;101886.94;5010835;28;20029;-64
2023/01/05 06:10:09;;;;;;;35.55;5.57;;;;;;;11.27;100.00;101894.09;5009513;28;20018;-63
2023/01/05 06:12:34;;;;;;;38.15;5.93;;;;;;;11.23;100.00;101898.59;5010239;28;20520;-62
2023/01/05 06:15:00;;;;;;;39.22;5.47;;;;;;;11.28;100.00;101886.16;5009942;28;20050;-63
2023/01/05 06:17:25;;;;;;;37.35;5.93;;;;;;;11.33;100.00;101886.94;5010171;28;20054;-63
2023/01/05 06:19:50;;;;;;;46.50;6.80;;;;;;;11.30;100.00;101902.84;5008065;28;20026;-63
2023/01/05 06:22:16;;;;;;;29.73;5.13;;;;;;;11.24;100.00;101906.47;5009711;28;20026;-63
2023/01/05 06:24:41;;;;;;;44.75;5.70;;;;;;;11.31;100.00;101899.28;5008539;28;20069;-63
2023/01/05 06:27:06;;;;;;;31.38;6.40;;;;;;;11.32;100.00;101916.00;5008918;28;20026;-64
2023/01/05 06:29:31;;;;;;;39.78;5.57;;;;;;;11.30;100.00;101918.66;5010052;28;20080;-64
2023/01/05 06:31:57;;;;;;;31.73;5.45;;;;;;;11.32;100.00;101914.22;5009652;28;20520;-66
2023/01/05 06:34:22;;;;;;;42.05;6.68;;;;;;;11.27;100.00;101917.84;5009567;28;20484;-63
2023/01/05 06:36:47;;;;;;;41.85;6.18;;;;;;;11.16;100.00;101928.59;5010224;28;20465;-63
2023/01/05 06:39:13;;;;;;;40.08;5.65;;;;;;;11.23;100.00;101912.63;5008697;28;20583;-65
2023/01/05 06:41:38;;;;;;;41.13;5.45;;;;;;;11.27;100.00;101925.75;5008770;28;20387;-63
2023/01/05 06:44:04;;;;;;;43.35;6.13;;;;;;;11.29;100.00;101939.78;5009224;28;20045;-61
2023/01/05 06:46:29;;;;;;;29.13;5.57;;;;;;;11.23;100.00;101933.72;5009982;28;20028;-63
2023/01/05 06:48:55;;;;;;;40.78;5.60;;;;;;;11.32;100.00;101937.09;5009413;28;20373;-64
2023/01/05 06:51:21;;;;;;;32.92;4.55;;;;;;;11.25;100.00;101933.69;5007099;28;20026;-63
2023/01/05 06:53:46;;;;;;;37.42;5.40;;;;;;;11.20;100.00;101943.50;5008354;28;20092;-62
2023/01/05 06:56:12;;;;;;;40.75;5.68;;;;;;;11.19;100.00;101931.16;5008933;28;20072;-63
2023/01/05 06:58:37;;;;;;;39.78;5.63;;;;;;;11.28;100.00;101938.03;5009461;28;20034;-63
2023/01/05 07:01:03;;;;;;;32.45;4.85;;;;;;;11.25;100.00;101946.88;5007934;28;20108;-61
2023/01/05 07:03:28;;;;;;;25.25;4.72;;;;;;;11.18;100.00;101947.91;5008751;28;20396;-64
2023/01/05 07:05:53;;;;;;;46.75;6.13;;;;;;;11.18;100.00;101953.19;5008695;28;20026;-67
2023/01/05 07:08:19;;;;;;;40.65;5.68;;;;;;;11.11;100.00;101971.75;5008798;28;20444;-59
2023/01/05 07:10:44;;;;;;;37.42;6.05;;;;;;;11.14;100.00;101959.44;5009182;28;20373;-68
2023/01/05 07:13:09;;;;;;;30.77;4.70;;;;;;;11.14;100.00;101957.66;5008362;28;20091;-63
2023/01/05 07:15:35;;;;;;;36.67;6.25;;;;;;;11.09;100.00;101952.47;5007063;28;20100;-62
2023/01/05 07:18:00;;;;;;;39.50;6.68;;;;;;;11.09;100.00;101955.09;4990351;28;20063;-64
2023/01/05 07:20:26;;;;;;;31.13;5.75;;;;;;;11.01;100.00;101946.44;5007942;28;20030;-59
2023/01/05 07:22:51;;;;;;;38.15;5.65;;;;;;;10.89;100.00;101947.53;5007809;28;20022;-59
2023/01/05 07:25:16;;;;;;;43.85;5.95;;;;;;;10.84;100.00;101965.22;4990537;28;20400;-62
2023/01/05 07:27:41;;;;;;;38.50;6.18;;;;;;;10.84;100.00;101957.31;5008730;28;20491;-63
2023/01/05 07:30:08;;;;;;;43.78;5.97;;;;;;;10.76;100.00;101960.06;5008118;28;20097;-63
2023/01/05 07:32:33;;;;;;;36.13;6.13;;;;;;;10.69;100.00;101959.28;5008584;28;20049;-63
2023/01/05 07:34:58;;;;;;;43.53;6.38;;;;;;;10.60;100.00;101960.31;4985195;28;20061;-62
2023/01/05 07:37:24;;;;;;;29.23;4.93;;;;;;;10.67;100.00;101971.63;4991383;28;20026;-62
2023/01/05 07:39:49;;;;;;;42.28;5.65;;;;;;;10.56;100.00;101977.06;4991512;28;20104;-63
2023/01/05 07:42:14;;;;;;;33.25;5.47;;;;;;;10.51;100.00;101971.00;4997832;28;20026;-64
2023/01/05 07:44:40;;;;;;;35.03;5.85;;;;;;;10.53;100.00;101966.56;4991761;28;20065;-62
2023/01/05 07:47:05;;;;;;;35.38;6.00;;;;;;;10.51;100.00;101964.84;4993566;28;20029;-61
2023/01/05 07:49:30;;;;;;;37.67;5.38;;;;;;;10.57;100.00;101967.41;4997068;28;20030;-63
2023/01/05 07:51:56;;;;;;;37.42;5.72;;;;;;;10.51;100.00;101968.38;5007198;28;20032;-64
2023/01/05 07:54:21;;;;;;;44.05;6.40;;;;;;;10.54;100.00;101992.03;5007747;28;20068;-63
2023/01/05 07:56:47;;;;;;;43.85;6.72;;;;;;;10.48;100.00;101979.81;5008256;28;20057;-62
2023/01/05 07:59:13;;;;;;;38.78;6.47;;;;;;;10.43;100.00;101988.66;4988549;28;20132;-64
2023/01/05 08:01:38;;;;;;;45.30;5.88;;;;;;;10.44;100.00;101995.66;5007298;28;20141;-63
2023/01/05 08:04:04;;;;;;;44.50;5.80;;;;;;;10.52;100.00;102008.75;5007363;28;20045;-63
2023/01/05 08:06:29;;;;;;;45.13;6.20;;;;;;;10.51;100.00;101997.38;5007331;28;20153;-64
2023/01/05 08:08:55;;;;;;;46.15;6.57;;;;;;;10.57;100.00;101999.88;4988996;28;20033;-63
2023/01/05 08:11:21;;;;;;;36.92;6.03;;;;;;;10.54;100.00;101994.66;5007010;28;20475;-61
2023/01/05 08:13:58;;;;;;;43.40;6.05;;;;;;;10.48;100.00;102014.06;5008125;28;20116;-63
2023/01/05 08:16:24;;;;;;;37.22;6.20;;;;;;;10.44;100.00;102003.56;5006246;28;20476;-58
2023/01/05 08:18:50;;;;;;;36.95;5.65;;;;;;;10.53;100.00;102006.09;5008504;28;20033;-63
2023/01/05 08:21:16;;;;;;;44.67;6.43;;;;;;;10.53;100.00;102014.00;5007821;28;20369;-60
2023/01/05 08:23:41;;;;;;;48.20;7.13;;;;;;;10.57;100.00;102012.22;5006633;28;20083;-68
2023/01/05 08:26:14;;;;;;;51.55;6.97;;;;;;;10.53;100.00;102015.78;5006719;28;20028;-63
2023/01/05 08:28:40;;;;;;;38.72;6.28;;;;;;;10.56;100.00;102016.59;5007095;28;20038;-63
2023/01/05 08:31:12;;;;;;;39.90;5.88;;;;;;;10.58;100.00;102020.09;4989501;28;20026;-64
2023/01/05 08:33:37;;;;;;;37.58;5.10;;;;;;;10.55;100.00;102033.31;4989965;28;20018;-60
2023/01/05 08:36:14;;;;;;;38.55;6.22;;;;;;;10.62;100.00;102031.44;5007831;28;20119;-62
2023/01/05 08:38:46;;;;;;;43.92;5.70;;;;;;;10.66;100.00;102040.19;5006896;28;20507;-64
2023/01/05 08:41:16;;;;;;;40.85;6.60;;;;;;;10.71;100.00;102040.97;5007468;28;20029;-64
2023/01/05 08:43:42;;;;;;;40.38;5.28;;;;;;;10.70;100.00;102047.16;4993174;28;20487;-63
2023/01/05 08:46:07;;;;;;;39.42;4.78;;;;;;;10.79;100.00;102041.75;4992962;28;20053;-62
2023/01/05 08:48:32;;;;;;;33.88;5.45;;;;;;;10.82;100.00;102049.63;5011780;28;20037;-62
2023/01/05 08:51:06;;;;;;;43.58;5.50;;;;;;;10.86;100.00;102061.84;5011162;28;20061;-62
2023/01/05 08:53:34;;;;;;;36.13;5.60;;;;;;;10.89;100.00;102054.78;5010527;28;20108;-63
2023/01/05 08:56:00;;;;;;;37.53;5.60;;;;;;;10.90;100.00;102051.25;5010487;28;20033;-64
2023/01/05 08:58:26;;;;;;;36.03;6.18;;;;;;;10.94;100.00;102060.84;5008836;28;20428;-58
2023/01/05 09:00:52;;;;;;;39.55;6.30;;;;;;;11.07;100.00;102059.75;4991348;28;20018;-65
2023/01/05 09:03:17;;;;;;;33.78;5.45;;;;;;;11.16;100.00;102057.84;5011690;28;20036;-63
2023/01/05 09:05:43;;;;;;;48.00;6.30;;;;;;;11.15;100.00;102061.41;5009968;28;20091;-60
2023/01/05 09:08:08;;;;;;;31.80;5.97;;;;;;;11.22;100.00;102055.13;5010390;28;20034;-62
2023/01/05 09:10:33;;;;;;;28.67;5.22;;;;;;;11.23;100.00;102070.06;5011360;28;20030;-63
2023/01/05 09:12:59;;;;;;;40.90;5.82;;;;;;;11.37;100.00;102067.16;4993858;28;20045;-62
2023/01/05 09:15:24;;;;;;;37.47;5.13;;;;;;;11.38;100.00;102063.66;4998755;28;20109;-65
2023/01/05 09:17:49;;;;;;;36.47;6.13;;;;;;;11.49;100.00;102077.53;4990993;28;20042;-62
2023/01/05 09:20:15;;;;;;;24.45;4.70;;;;;;;11.52;100.00;102073.06;4990789;28;20038;-62
2023/01/05 09:22:40;;;;;;;31.40;5.47;;;;;;;11.46;100.00;102082.84;4990026;28;20041;-63
2023/01/05 09:25:06;;;;;;;36.03;6.78;;;;;;;11.50;100.00;102088.97;4973532;28;20034;-61
2023/01/05 09:27:31;;;;;;;34.30;5.50;;;;;;;11.49;100.00;102092.47;4991950;28;20503;-61
2023/01/05 09:29:56;;;;;;;34.70;5.70;;;;;;;11.55;100.00;102094.13;4991781;28;20023;-65
2023/01/05 09:32:23;;;;;;;37.75;6.80;;;;;;;11.57;100.00;102087.06;4973710;28;20026;-65
2023/01/05 09:34:48;;;;;;;37.72;6.05;;;;;;;11.68;100.00;102081.59;4991998;28;20026;-64
2023/01/05 09:37:13;;;;;;;41.40;5.57;;;;;;;11.67;100.00;102099.19;5002327;28;20132;-64
2023/01/05 09:39:39;;;;;;;45.25;6.22;;;;;;;11.58;100.00;102102.00;5009635;28;20037;-62
2023/01/05 09:42:06;;;;;;;39.35;5.50;;;;;;;11.71;100.00;102102.66;5003728;28;20089;-62
2023/01/05 09:44:38;;;;;;;31.92;5.63;;;;;;;11.78;100.00;102096.38;5006193;28;20101;-60
2023/01/05 09:47:25;;;;;;;32.58;5.07;;;;;;;11.88;100.00;102095.28;4990564;28;20125;-63
2023/01/05 09:49:51;;;;;;;31.42;5.07;;;;;;;11.83;100.00;102099.78;5004877;28;20046;-63
2023/01/05 09:52:20;;;;;;;28.00;4.88;;;;;;;11.79;100.00;102100.75;4992547;28;20037;-61
2023/01/05 09:54:45;;;;;;;40.80;6.22;;;;;;;11.88;100.00;102105.84;4987675;28;20018;-63
2023/01/05 09:57:19;;;;;;;43.72;6.25;;;;;;;12.03;100.00;102111.75;5007345;28;20018;-60
2023/01/05 09:59:57;;;;;;;34.08;6.60;;;;;;;12.00;100.00;102114.44;5009717;28;20053;-62
2023/01/05 10:02:26;;;;;;;42.45;5.55;;;;;;;12.00;100.00;102115.31;4992881;28;20018;-65
2023/01/05 10:04:52;;;;;;;47.85;6.07;;;;;;;11.98;100.00;102116.25;5009784;28;20026;-61
2023/01/05 10:07:45;;;;;;;34.00;5.95;;;;;;;12.22;100.00;102116.69;4992137;28;20516;-63
2023/01/05 10:10:25;;;;;;;39.95;6.18;;;;;;;12.25;100.00;102117.50;4990309;28;20037;-58
2023/01/05 10:13:04;;;;;;;35.65;6.30;;;;;;;12.29;100.00;102126.25;4991037;28;20026;-61
2023/01/05 10:15:34;;;;;;;38.20;5.50;;;;;;;12.34;100.00;102124.34;4978217;28;20783;-62
2023/01/05 10:18:01;;;;;;;34.95;5.60;;;;;;;12.37;100.00;102139.28;4986362;28;20058;-62
2023/01/05 10:20:45;;;;;;;38.55;5.47;;;;;;;12.28;100.00;102132.41;4987538;28;20026;-61
2023/01/05 10:23:31;;;;;;;38.58;5.47;;;;;;;12.35;100.00;102133.16;4989239;28;20030;-59
2023/01/05 10:26:04;;;;;;;36.28;5.32;;;;;;;12.32;100.00;102123.53;4987170;28;20033;-60
2023/01/05 10:28:51;;;;;;;41.70;6.80;;;;;;;12.47;100.00;102124.09;4989307;28;20029;-62
2023/01/05 10:31:22;;;;;;;33.75;5.03;;;;;;;12.43;100.00;102127.72;5007288;28;20593;-62
2023/01/05 10:33:51;;;;;;;44.05;6.35;;;;;;;12.45;100.00;102131.19;4984405;28;20018;-65
2023/01/05 10:36:30;;;;;;;34.95;5.43;;;;;;;12.54;100.00;102136.28;5000917;28;20014;-62
2023/01/05 10:39:25;;;;;;;;;;;;;;;12.50;100.00;102132.81;5007218;28;20033;-62
2023/01/05 10:42:04;;;;;;;45.45;6.25;;;;;;;12.43;100.00;102127.72;4987631;28;20661;-59
2023/01/05 10:44:42;;;;;;;41.88;6.72;;;;;;;12.75;100.00;102134.97;4986505;28;20080;-63
2023/01/05 10:47:09;;;;;;;35.53;5.38;;;;;;;12.83;100.00;102133.91;5006201;28;20030;-64
2023/01/05 10:49:34;;;;;;;35.35;5.95;;;;;;;12.80;100.00;102134.84;4990066;28;20123;-63
2023/01/05 10:52:00;;;;;;;34.70;6.30;;;;;;;12.87;100.00;102139.09;4988800;28;20409;-65
2023/01/05 10:54:32;;;;;;;39.90;6.63;;;;;;;12.75;100.00;102145.53;4998189;28;20026;-63
2023/01/05 10:57:32;;;;;;;47.88;7.35;;;;;;;12.77;100.00;102142.84;5008447;28;20103;-65
2023/01/05 11:00:16;;;;;;;39.22;5.50;;;;;;;12.82;100.00;102137.47;5006444;28;20038;-63
2023/01/05 11:02:56;;;;;;;30.55;5.22;;;;;;;12.83;100.00;102132.16;5002974;28;20058;-64
2023/01/05 11:05:31;;;;;;;42.33;6.60;;;;;;;12.86;100.00;102129.41;5007083;28;20018;-63
2023/01/05 11:08:01;;;;;;;43.88;6.88;;;;;;;12.82;100.00;102124.25;4990133;28;20093;-64
2023/01/05 11:10:31;;;;;;;38.28;5.65;;;;;;;12.87;100.00;102128.53;5008674;28;20030;-58
2023/01/05 11:13:15;;;;;;;46.63;7.20;;;;;;;12.66;100.00;102118.41;4988629;28;20388;-58
2023/01/05 11:15:43;;;;;;;41.85;6.95;;;;;;;12.56;100.00;102117.75;5008565;28;20056;-59
2023/01/05 11:18:24;;;;;;;42.70;6.35;;;;;;;12.52;100.00;102111.66;5007631;28;20457;-63
2023/01/05 11:21:04;;;;;;;50.75;7.22;;;;;;;12.53;100.00;102113.41;5008931;28;20100;-64
2023/01/05 11:23:35;;;;;;;42.35;5.97;;;;;;;12.53;100.00;102125.75;5008065;28;20139;-62
2023/01/05 11:26:16;;;;;;;46.20;8.48;;;;;;;12.52;100.00;102111.66;5008381;28;20087;-61
2023/01/05 11:28:58;;;;;;;40.25;5.90;;;;;;;12.54;100.00;102107.22;5009142;28;20037;-56
2023/01/05 11:31:26;;;;;;;40.58;6.07;;;;;;;12.57;100.00;102120.38;5008466;28;20516;-64
2023/01/05 11:33:56;;;;;;;40.25;6.43;;;;;;;12.49;100.00;102123.16;5002879;28;20032;-64
2023/01/05 11:36:21;;;;;;;40.97;6.70;;;;;;;12.61;100.00;102119.38;4988120;28;20034;-64
2023/01/05 11:38:54;;;;;;;27.08;4.95;;;;;;;12.69;100.00;102118.34;5006971;28;20352;-66
2023/01/05 11:41:21;;;;;;;33.55;4.97;;;;;;;12.71;100.00;102117.44;4990656;28;20053;-63
2023/01/05 11:43:47;;;;;;;37.25;6.35;;;;;;;12.64;100.00;102123.72;4990695;28;20022;-63
2023/01/05 11:46:14;;;;;;;34.45;5.38;;;;;;;12.73;100.00;102109.44;4989300;28;20028;-64